createdAt,value
2023-09-10T00:04:35.446Z,18.40
2023-09-10T00:09:40.410Z,18.40
2023-09-10T00:14:45.400Z,18.30
2023-09-10T00:19:49.061Z,18.30
2023-09-10T00:24:52.681Z,18.30
2023-09-10T00:29:57.323Z,18.30
2023-09-10T00:35:01.161Z,18.40
2023-09-10T00:40:06.823Z,18.50
2023-09-10T00:45:13.672Z,18.40
2023-09-10T00:50:17.515Z,18.30
2023-09-10T00:55:22.593Z,18.20
2023-09-10T01:00:30.173Z,18.20
2023-09-10T01:05:35.835Z,18.20
2023-09-10T01:10:44.895Z,18.20
2023-09-10T01:15:56.927Z,18.20
2023-09-10T01:21:38.300Z,18.20
2023-09-10T01:26:43.429Z,18.20
2023-09-10T01:31:50.785Z,18.10
2023-09-10T01:36:59.453Z,18.10
2023-09-10T01:42:06.517Z,18.00
2023-09-10T01:47:10.166Z,18.00
2023-09-10T01:52:13.629Z,17.90
2023-09-10T01:57:18.243Z,17.90
2023-09-10T02:02:21.862Z,16.90
2023-09-10T02:07:25.186Z,17.60
2023-09-10T02:12:29.755Z,17.70
2023-09-10T02:17:33.380Z,17.60
2023-09-10T02:22:36.670Z,17.50
2023-09-10T02:27:41.927Z,17.40
2023-09-10T02:32:45.272Z,17.40
2023-09-10T02:37:49.145Z,17.40
2023-09-10T02:42:53.945Z,17.40
2023-09-10T02:47:57.569Z,17.30
2023-09-10T02:53:01.218Z,17.30
2023-09-10T02:58:07.389Z,17.30
2023-09-10T03:03:10.884Z,17.30
2023-09-10T03:08:14.580Z,17.20
2023-09-10T03:13:19.397Z,17.20
2023-09-10T03:18:23.060Z,17.20
2023-09-10T03:23:26.450Z,17.20
2023-09-10T03:28:31.281Z,17.20
2023-09-10T03:33:34.936Z,17.20
2023-09-10T03:38:38.942Z,17.20
2023-09-10T03:43:44.736Z,17.10
2023-09-10T03:48:48.538Z,17.20
2023-09-10T03:53:52.128Z,17.00
2023-09-10T03:58:56.879Z,16.90
2023-09-10T04:04:00.740Z,16.80
2023-09-10T04:09:04.994Z,16.70
2023-09-10T04:14:09.728Z,16.70
2023-09-10T04:19:13.038Z,16.60
2023-09-10T04:24:16.569Z,16.60
2023-09-10T04:29:23.523Z,16.60
2023-09-10T04:34:26.969Z,16.60
2023-09-10T04:39:30.890Z,16.60
2023-09-10T04:44:37.217Z,16.50
2023-09-10T04:49:40.690Z,16.50
2023-09-10T04:59:49.592Z,16.50
2023-09-10T05:04:53.096Z,16.60
2023-09-10T05:09:56.991Z,16.60
2023-09-10T05:15:02.471Z,16.60
2023-09-10T05:20:07.074Z,16.50
2023-09-10T05:25:11.390Z,16.70
2023-09-10T05:30:16.627Z,16.80
2023-09-10T05:35:20.002Z,16.90
2023-09-10T05:40:23.382Z,17.00
2023-09-10T05:45:28.127Z,16.90
2023-09-10T05:50:31.494Z,17.30
2023-09-10T05:55:35.648Z,17.40
2023-09-10T06:00:40.749Z,17.60
2023-09-10T06:05:44.697Z,17.70
2023-09-10T06:10:48.390Z,17.90
2023-09-10T06:15:53.390Z,18.00
2023-09-10T06:20:57.098Z,18.10
2023-09-10T06:26:00.790Z,18.30
2023-09-10T06:31:07.009Z,18.50
2023-09-10T06:36:10.480Z,18.70
2023-09-10T06:41:15.443Z,18.80
2023-09-10T06:46:20.400Z,19.00
2023-09-10T06:51:24.114Z,19.20
2023-09-10T06:56:27.438Z,19.40
2023-09-10T07:01:32.426Z,19.60
2023-09-10T07:06:36.215Z,19.90
2023-09-10T07:11:39.530Z,20.10
2023-09-10T07:16:45.045Z,20.30
2023-09-10T07:21:48.273Z,20.40
2023-09-10T07:26:51.676Z,20.70
2023-09-10T07:31:56.575Z,20.80
2023-09-10T07:36:59.946Z,21.00
2023-09-10T07:42:03.270Z,21.20
2023-09-10T07:47:07.967Z,21.50
2023-09-10T07:52:11.534Z,21.80
2023-09-10T07:57:16.192Z,22.00
2023-09-10T08:02:22.022Z,22.30
2023-09-10T08:07:25.710Z,22.40
2023-09-10T08:12:29.484Z,22.70
2023-09-10T08:17:35.447Z,22.90
2023-09-10T08:22:39.049Z,23.20
2023-09-10T08:27:42.767Z,23.30
2023-09-10T08:32:49.189Z,23.50
2023-09-10T08:37:52.873Z,23.70
2023-09-10T08:43:03.515Z,24.00
2023-09-10T08:48:09.442Z,24.30
2023-09-10T08:53:15.182Z,24.50
2023-09-10T08:58:20.131Z,24.80
2023-09-10T09:03:25.870Z,25.10
2023-09-10T09:08:32.979Z,25.30
2023-09-10T09:13:37.914Z,25.60
2023-09-10T09:18:44.941Z,26.00
2023-09-10T09:23:52.432Z,26.20
2023-09-10T09:28:57.411Z,26.40
2023-09-10T09:34:02.719Z,26.70
2023-09-10T09:39:08.682Z,26.60
2023-09-10T09:44:12.161Z,26.80
2023-09-10T09:49:17.035Z,26.80
2023-09-10T09:54:20.973Z,26.90
2023-09-10T09:59:24.661Z,27.00
2023-09-10T10:04:30.487Z,27.00
2023-09-10T10:09:37.842Z,27.20
2023-09-10T10:14:42.308Z,27.40
2023-09-10T10:19:48.866Z,27.50
2023-09-10T10:24:53.502Z,27.70
2023-09-10T10:29:57.108Z,27.80
2023-09-10T10:35:04.083Z,27.90
2023-09-10T10:40:13.089Z,28.00
2023-09-10T10:45:18.440Z,28.00
2023-09-10T10:50:27.294Z,28.20
2023-09-10T10:55:32.070Z,28.30
2023-09-10T11:00:36.314Z,28.30
2023-09-10T11:06:06.792Z,28.40
2023-09-10T11:11:11.920Z,28.50
2023-09-10T11:16:19.223Z,28.50
2023-09-10T11:21:23.917Z,28.60
2023-09-10T11:26:31.470Z,28.60
2023-09-10T11:31:40.344Z,28.60
2023-09-10T11:36:47.305Z,28.60
2023-09-10T11:41:53.345Z,28.60
2023-09-10T11:46:56.814Z,28.60
2023-09-10T11:52:01.804Z,28.60
2023-09-10T11:57:05.841Z,28.80
2023-09-10T12:02:09.668Z,28.80
2023-09-10T12:07:14.348Z,28.80
2023-09-10T12:12:26.236Z,28.90
2023-09-10T12:17:29.609Z,28.90
2023-09-10T12:22:34.280Z,29.10
2023-09-10T12:27:38.397Z,29.10
2023-09-10T12:32:43.110Z,29.20
2023-09-10T12:37:55.828Z,29.20
2023-09-10T12:42:59.533Z,29.20
2023-09-10T12:48:03.405Z,29.30
2023-09-10T12:53:08.284Z,29.30
2023-09-10T12:58:14.267Z,29.20
2023-09-10T13:03:17.746Z,29.20
2023-09-10T13:08:23.092Z,29.20
2023-09-10T13:13:26.404Z,29.30
2023-09-10T13:18:30.221Z,29.20
2023-09-10T13:23:35.373Z,29.20
2023-09-10T13:28:38.765Z,29.10
2023-09-10T13:33:42.261Z,29.10
2023-09-10T13:38:47.393Z,29.10
2023-09-10T13:43:50.788Z,29.10
2023-09-10T13:48:54.045Z,29.10
2023-09-10T13:54:01.780Z,29.20
2023-09-10T13:59:06.271Z,29.20
2023-09-10T14:04:10.094Z,29.10
2023-09-10T14:09:14.733Z,29.10
2023-09-10T14:14:18.067Z,29.10
2023-09-10T14:19:21.354Z,29.00
2023-09-10T14:24:29.501Z,29.10
2023-09-10T14:29:33.188Z,29.00
2023-09-10T14:34:36.626Z,29.10
2023-09-10T14:39:41.737Z,28.90
2023-09-10T14:44:45.099Z,28.90
2023-09-10T14:49:48.636Z,28.90
2023-09-10T14:54:53.601Z,28.90
2023-09-10T14:59:57.539Z,28.90
2023-09-10T15:05:01.154Z,28.80
2023-09-10T15:10:07.073Z,28.80
2023-09-10T15:15:12.080Z,28.80
2023-09-10T15:20:15.330Z,28.80
2023-09-10T15:25:20.279Z,28.80
2023-09-10T15:30:23.879Z,28.70
2023-09-10T15:35:27.636Z,28.60
2023-09-10T15:40:32.737Z,28.60
2023-09-10T15:45:37.343Z,28.50
2023-09-10T15:50:41.025Z,28.40
2023-09-10T15:55:46.029Z,28.40
2023-09-10T16:00:50.702Z,28.40
2023-09-10T16:05:56.556Z,28.30
2023-09-10T16:11:01.312Z,28.30
2023-09-10T16:16:05.115Z,28.40
2023-09-10T16:21:08.418Z,28.50
2023-09-10T16:26:13.047Z,28.60
2023-09-10T16:31:16.441Z,28.40
2023-09-10T16:36:20.514Z,28.40
2023-09-10T16:41:25.712Z,28.40
2023-09-10T16:46:29.376Z,28.30
2023-09-10T16:51:33.013Z,28.30
2023-09-10T16:56:37.673Z,28.30
2023-09-10T17:01:41.070Z,28.40
2023-09-10T17:06:45.007Z,28.50
2023-09-10T17:11:49.892Z,28.40
2023-09-10T17:16:53.195Z,28.10
2023-09-10T17:21:56.618Z,27.60
2023-09-10T17:27:01.431Z,27.10
2023-09-10T17:32:05.556Z,26.70
2023-09-10T17:37:09.245Z,26.30
2023-09-10T17:42:14.461Z,25.90
2023-09-10T17:47:27.308Z,25.60
2023-09-10T17:52:32.095Z,25.30
2023-09-10T17:57:36.659Z,25.00
2023-09-10T18:02:40.554Z,24.80
2023-09-10T18:07:44.546Z,23.80
2023-09-10T18:12:49.196Z,24.30
2023-09-10T18:17:52.954Z,24.10
2023-09-10T18:22:56.432Z,23.90
2023-09-10T18:28:02.167Z,23.80
2023-09-10T18:33:06.055Z,23.70
2023-09-10T18:38:09.448Z,23.60
2023-09-10T18:43:14.329Z,23.40
2023-09-10T18:48:18.126Z,23.20
2023-09-10T18:53:21.792Z,23.10
2023-09-10T18:58:26.749Z,22.90
2023-09-10T19:03:30.252Z,22.90
2023-09-10T19:08:33.831Z,22.80
2023-09-10T19:13:39.575Z,22.60
2023-09-10T19:18:43.250Z,22.40
2023-09-10T19:23:47.009Z,22.30
2023-09-10T19:28:52.176Z,22.10
2023-09-10T19:33:57.390Z,21.90
2023-09-10T19:39:00.974Z,21.80
2023-09-10T19:44:06.578Z,21.70
2023-09-10T19:49:10.682Z,21.60
2023-09-10T19:54:14.225Z,21.50
2023-09-10T19:59:19.350Z,21.30
2023-09-10T20:04:22.724Z,21.20
2023-09-10T20:09:26.117Z,21.00
2023-09-10T20:14:32.335Z,21.00
2023-09-10T20:19:35.756Z,20.90
2023-09-10T20:24:39.450Z,20.70
2023-09-10T20:29:44.543Z,20.70
2023-09-10T20:34:48.304Z,20.70
2023-09-10T20:39:56.737Z,20.70
2023-09-10T20:45:01.497Z,20.60
2023-09-10T20:50:05.462Z,20.50
2023-09-10T20:55:09.367Z,20.40
2023-09-10T21:00:15.353Z,20.30
2023-09-10T21:05:19.292Z,20.20
2023-09-10T21:10:22.856Z,20.00
2023-09-10T21:15:27.842Z,19.90
2023-09-10T21:20:31.395Z,19.80
2023-09-10T21:25:36.002Z,19.80
2023-09-10T21:30:42.550Z,19.60
2023-09-10T21:35:46.356Z,19.50
2023-09-10T21:40:49.919Z,19.50
2023-09-10T21:45:55.738Z,19.40
2023-09-10T21:50:59.411Z,19.40
2023-09-10T21:56:02.836Z,19.30
2023-09-10T22:01:07.609Z,19.40
2023-09-10T22:06:12.185Z,19.30
2023-09-10T22:11:17.702Z,19.30
2023-09-10T22:16:22.568Z,19.40
2023-09-10T22:21:26.103Z,19.40
2023-09-10T22:26:29.459Z,19.30
2023-09-10T22:31:34.504Z,19.30
2023-09-10T22:36:39.218Z,19.20
2023-09-10T22:41:42.915Z,19.10
2023-09-10T22:46:48.027Z,19.10
2023-09-10T22:51:51.843Z,19.00
2023-09-10T22:56:55.386Z,19.00
2023-09-10T23:02:00.224Z,19.00
2023-09-10T23:07:03.724Z,18.90
2023-09-10T23:12:07.919Z,18.90
2023-09-10T23:17:13.264Z,19.00
2023-09-10T23:22:16.624Z,18.70
2023-09-10T23:27:19.925Z,18.60
2023-09-10T23:32:24.668Z,18.60
2023-09-10T23:37:28.398Z,18.60
2023-09-10T23:42:31.734Z,18.50
2023-09-10T23:47:37.807Z,18.40
2023-09-10T23:52:41.158Z,18.40
2023-09-10T23:57:44.566Z,18.40
